Latest Coastal Weather Observations for Wyndham Airport

IDW60701

Issued at 10:52 am WST Sunday 19 April 2015 (issued every 10 minutes, with the page automatically refreshed every 10 minutes)

About coastal observations | Map of coastal stations | Coastal observations for WA | Marine services | Other Formats
Station Details ID: 001006 Name: WYNDHAM AERO Lat: -15.51 Lon: 128.15 Height: 3.8 m
Data from the previous 72 hours. | See also: Recent months for locations in Western Australia
Date/Time
WST
Temp

°C
Wind Pressure Rain
since 9am
mm
Weather Cloud Vis
km
Sea
Height
m
Swell
Dir
 
Speed
knots
Gust
knots
hPa Trend Height
m
Period
s
Dir
19/10:30am 31.8 SE 13 17 1012.9 - 0.2 - - - - - - -
19/10:00am 32.2 ESE 13 18 1013.2 - 0.0 - - - - - - -
19/09:30am 30.5 ESE 13 19 1013.5 - 0.0 - - - - - - -
19/09:00am 30.0 ESE 13 17 1013.8 - 5.2 - - - - - - -
19/08:30am 28.5 SE 13 16 1013.6 - 5.2 - - - - - - -
19/08:00am 28.2 ESE 14 19 1013.5 - 5.2 - - - - - - -
19/07:30am 27.6 SE 13 18 1013.7 - 5.2 - - - - - - -
19/07:00am 26.8 SE 10 15 1013.7 - 5.2 - - - - - - -
19/06:30am 26.4 SE 11 16 1013.6 - 5.2 - - - - - - -
19/06:00am 26.1 SE 11 14 1013.5 - 5.2 - - - - - - -
19/05:30am 25.9 SE 9 13 1013.2 - 5.2 - - - - - - -
19/05:00am 25.9 SSE 9 11 1012.8 - 5.2 - - - - - - -
19/04:30am 25.9 SSE 9 11 1012.7 - 5.2 - - - - - - -
19/04:00am 26.0 SSE 7 10 1012.6 - 5.2 - - - - - - -
19/03:30am 25.7 SSW 8 11 1012.4 - 5.2 - - - - - - -
19/03:00am 25.3 SW 8 10 1012.3 - 5.2 Recent precip. - - - - - -
19/02:30am 25.2 S 7 10 1012.2 - 5.2 - - - - - - -
19/02:00am 24.6 S 10 16 1012.2 - 4.6 - - - - - - -
19/01:30am 27.5 SSW 7 10 1011.9 - 0.0 - - - - - - -
19/01:00am 27.0 SSW 9 11 1012.1 - 0.0 - - - - - - -
19/12:30am 27.5 SSW 10 12 1011.9 - 0.0 - - - - - - -
19/12:00am 27.6 N 3 6 1012.4 - 0.0 - - - - - - -
 
Date/Time
WST
Temp

°C
Wind Pressure Rain
since 9am
mm
Weather Cloud Vis
km
Sea
Height
m
Swell
Dir
 
Speed
knots
Gust
knots
hPa Trend Height
m
Period
s
Dir
18/11:30pm 27.4 S 12 16 1012.1 - 0.0 - - - - - - -
18/11:00pm 26.7 SW 11 14 1012.4 - 0.0 - - - - - - -
18/10:30pm 28.5 SW 7 10 1012.2 - 0.0 - - - - - - -
18/10:00pm 29.4 SSE 11 21 1012.2 - 0.0 - - - - - - -
18/09:51pm 29.4 E 8 23 1011.6 - 0.0 - - - - - - -
18/09:30pm 31.9 NNW 7 9 1011.0 - 0.0 - - - - - - -
18/09:00pm 31.8 WSW 5 7 1011.1 - 0.0 - - - - - - -
18/08:30pm 31.9 N 2 7 1010.7 - 0.0 - - - - - - -
18/08:00pm 32.0 NNW 1 5 1010.7 - 0.0 - - - - - - -
18/07:30pm 32.2 N 8 12 1010.4 - 0.0 - - - - - - -
18/07:00pm 32.5 N 7 13 1010.1 - 0.0 - - - - - - -
18/06:30pm 32.5 N 9 13 1009.6 - 0.0 - - - - - - -
18/06:00pm 32.7 N 9 12 1008.9 - 0.0 - - - - - - -
18/05:30pm 33.4 N 9 15 1008.3 - 0.0 - - - - - - -
18/05:00pm 34.2 N 10 13 1008.0 - 0.0 - - - - - - -
18/04:30pm 35.4 N 7 11 1007.7 - 0.0 - - - - - - -
18/04:00pm 36.3 NE 7 11 1007.5 - 0.0 - - - - - - -
18/03:30pm 36.9 NE 5 8 1007.5 - 0.0 - - - - - - -
18/03:00pm 36.8 ENE 3 7 1007.4 - 0.0 - - - - - - -
18/02:30pm 37.4 ENE 6 8 1007.5 - 0.0 - - - - - - -
18/02:00pm 36.2 ENE 5 8 1007.8 - 0.0 - - - - - - -
18/01:30pm 36.1 NE 5 16 1008.2 - 0.0 - - - - - - -
18/01:00pm 36.7 NE 5 9 1008.6 - 0.0 - - - - - - -
18/12:30pm 35.5 SW 2 5 1009.0 - 0.0 - - - - - - -
18/12:00pm 35.4 E 2 5 1009.5 - 0.0 - - - - - - -
18/11:30am 36.2 N 4 7 1010.1 - 0.0 - - - - - - -
18/11:00am 35.1 ESE 5 9 1010.7 - 0.0 - - - - - - -
18/10:30am 34.7 ENE 4 7 1011.4 - 0.0 - - - - - - -
18/10:00am 33.8 ESE 4 7 1011.7 - 0.0 - - - - - - -
18/09:30am 33.7 SSW 3 7 1012.0 - 0.0 - - - - - - -
18/09:00am 32.8 SW 4 7 1012.4 - 0.0 - - - - - - -
18/08:30am 32.0 S 4 8 1012.5 - 0.0 - - - - - - -
18/08:00am 31.2 SW 4 5 1012.3 - 0.0 - - - - - - -
18/07:30am 30.6 W 4 6 1012.0 - 0.0 - - - - - - -
18/07:00am 29.7 WNW 6 8 1012.0 - 0.0 - - - - - - -
18/06:30am 29.8 WNW 6 7 1011.9 - 0.0 - - - - - - -
18/06:00am 28.6 NNW 3 4 1011.8 - 0.0 - - - - - - -
18/05:30am 28.6 WSW 6 8 1011.4 - 0.0 - - - - - - -
18/05:00am 27.9 W 4 7 1011.1 - 0.0 - - - - - - -
18/04:30am 27.8 W 4 5 1010.8 - 0.0 - - - - - - -
18/04:00am 27.5 NW 5 6 1010.5 - 0.0 - - - - - - -
18/03:30am 27.9 NW 4 5 1010.1 - 0.0 - - - - - - -
18/03:00am 27.9 NNW 5 6 1009.9 - 0.0 - - - - - - -
18/02:30am 27.9 NNW 5 6 1009.8 - 0.0 - - - - - - -
18/02:00am 27.7 NNW 5 6 1009.8 - 0.0 - - - - - - -
18/01:30am 28.4 WNW 4 5 1010.1 - 0.0 - - - - - - -
18/01:00am 28.7 NW 3 5 1010.3 - 0.0 - - - - - - -
18/12:30am 29.3 NW 4 5 1010.5 - 0.0 - - - - - - -
18/12:00am 28.6 NW 1 4 1010.8 - 0.0 - - - - - - -
 
Date/Time
WST
Temp

°C
Wind Pressure Rain
since 9am
mm
Weather Cloud Vis
km
Sea
Height
m
Swell
Dir
 
Speed
knots
Gust
knots
hPa Trend Height
m
Period
s
Dir
17/11:30pm 27.8 CALM 0 0 1010.7 - 0.0 - - - - - - -
17/11:00pm 28.4 CALM 0 0 1010.8 - 0.0 - - - - - - -
17/10:30pm 29.3 CALM 0 0 1010.9 - 0.0 - - - - - - -
17/10:00pm 30.6 WNW 3 6 1011.0 - 0.0 - - - - - - -
17/09:30pm 31.1 SE 2 4 1011.0 - 0.0 - - - - - - -
17/09:00pm 31.3 NNW 3 7 1011.2 - 0.0 - - - - - - -
17/08:30pm 31.3 SSW 2 5 1011.2 - 0.0 - - - - - - -
17/08:00pm 31.3 NNW 2 6 1010.9 - 0.0 - - - - - - -
17/07:30pm 31.4 N 8 11 1010.5 - 0.0 - - - - - - -
17/07:00pm 31.5 N 9 13 1010.1 - 0.0 - - - - - - -
17/06:30pm 31.6 N 11 15 1009.6 - 0.0 - - - - - - -
17/06:00pm 31.9 N 12 17 1009.1 - 0.0 - - - - - - -
17/05:30pm 32.3 N 12 16 1008.9 - 0.0 - - - - - - -
17/05:00pm 32.9 N 13 17 1008.3 - 0.0 - - - - - - -
17/04:30pm 34.0 N 14 19 1008.1 - 0.0 - - - - - - -
17/04:00pm 35.5 NNW 10 15 1007.8 - 0.0 - - - - - - -
17/03:30pm 35.7 N 11 17 1007.7 - 0.0 - - - - - - -
17/03:00pm 35.8 NNW 11 15 1007.8 - 0.0 - - - - - - -
17/02:30pm 35.4 N 10 13 1008.0 - 0.0 - - - - - - -
17/02:00pm 36.0 NNW 7 10 1008.1 - 0.0 - - - - - - -
17/01:30pm 35.7 N 9 14 1008.4 - 0.0 - - - - - - -
17/01:00pm 36.6 N 10 16 1008.8 - 0.0 - - - - - - -
17/12:30pm 36.0 NNE 9 20 1009.3 - 0.0 - - - - - - -
17/12:00pm 36.0 NE 6 13 1009.8 - 0.0 - - - - - - -
17/11:30am 36.6 ESE 7 11 1010.3 - 0.0 - - - - - - -
17/11:00am 35.3 ENE 7 13 1010.8 - 0.0 - - - - - - -
17/10:30am 34.3 NE 6 11 1011.5 - 0.0 - - - - - - -
17/10:00am 35.4 ESE 5 10 1012.0 - 0.0 - - - - - - -
17/09:30am 34.3 SSE 6 9 1012.4 - 0.0 - - - - - - -
17/09:00am 33.1 SSW 3 6 1012.9 - 0.0 - - - - - - -
17/08:30am 32.7 ENE 3 6 1013.0 - 0.0 - - - - - - -
17/08:00am 31.6 CALM 0 0 1013.2 - 0.0 - - - - - - -
17/07:30am 30.7 CALM 0 0 1013.2 - 0.0 - - - - - - -
17/07:00am 29.8 SSW 1 4 1013.1 - 0.0 - - - - - - -
17/06:30am 28.8 NNW 3 4 1013.0 - 0.0 - - - - - - -
17/06:00am 28.1 NNW 5 7 1012.8 - 0.0 - - - - - - -
17/05:30am 27.1 N 5 6 1012.5 - 0.0 - - - - - - -
17/05:00am 27.0 NW 4 4 1012.2 - 0.0 - - - - - - -
17/04:30am 26.7 NW 3 4 1011.7 - 0.0 - - - - - - -
17/04:00am 26.6 N 4 5 1011.5 - 0.0 - - - - - - -
17/03:30am 26.9 NW 3 5 1011.3 - 0.0 - - - - - - -
17/03:00am 26.8 SSW 3 4 1011.1 - 0.0 - - - - - - -
17/02:30am 26.5 CALM 0 0 1011.0 - 0.0 - - - - - - -
17/02:00am 26.8 CALM 0 0 1011.1 - 0.0 - - - - - - -
17/01:30am 26.8 E 4 5 1011.5 - 0.0 - - - - - - -
17/01:00am 27.2 ESE 4 5 1011.6 - 0.0 - - - - - - -
17/12:30am 27.4 E 4 5 1012.1 - 0.0 - - - - - - -
17/12:00am 27.6 ENE 5 5 1012.3 - 0.0 - - - - - - -
 
Date/Time
WST
Temp

°C
Wind Pressure Rain
since 9am
mm
Weather Cloud Vis
km
Sea
Height
m
Swell
Dir
 
Speed
knots
Gust
knots
hPa Trend Height
m
Period
s
Dir
16/11:30pm 28.2 ESE 4 6 1012.7 - 0.0 - - - - - - -
16/11:00pm 28.0 ESE 6 7 1012.8 - 0.0 - - - - - - -
16/10:30pm 28.6 E 5 5 1013.0 - 0.0 - - - - - - -
16/10:00pm 29.2 CALM 0 0 1013.1 - 0.0 - - - - - - -
16/09:30pm 30.4 SW 1 3 1013.1 - 0.0 - - - - - - -
16/09:00pm 31.0 N 5 7 1013.3 - 0.0 - - - - - - -
16/08:30pm 31.0 N 5 6 1013.1 - 0.0 - - - - - - -
16/08:00pm 31.2 N 3 4 1013.0 - 0.0 - - - - - - -
16/07:30pm 30.9 NNE 6 7 1012.8 - 0.0 - - - - - - -
16/07:00pm 31.4 NW 4 6 1012.2 - 0.0 - - - - - - -
16/06:30pm 31.7 WNW 4 6 1011.6 - 0.0 - - - - - - -
16/06:00pm 31.9 N 5 8 1011.0 - 0.0 - - - - - - -
16/05:30pm 32.3 N 7 13 1010.7 - 0.0 - - - - - - -
16/05:00pm 32.8 N 10 14 1010.3 - 0.0 - - - - - - -
16/04:30pm 33.4 N 11 16 1010.1 - 0.0 - - - - - - -
16/04:00pm 34.0 N 12 16 1009.9 - 0.0 - - - - - - -
16/03:30pm 35.5 N 13 18 1009.8 - 0.0 - - - - - - -
16/03:00pm 36.0 N 13 18 1009.6 - 0.0 - - - - - - -
16/02:30pm 37.3 N 13 18 1009.7 - 0.0 - - - - - - -
16/02:00pm 37.0 ENE 11 16 1009.9 - 0.0 - - - - - - -
16/01:30pm 38.3 ENE 9 17 1010.2 - 0.0 - - - - - - -
16/01:00pm 38.3 ENE 11 15 1010.8 - 0.0 - - - - - - -
16/12:30pm 37.5 NE 10 16 1011.1 - 0.0 - - - - - - -
16/12:00pm 37.6 NNE 9 16 1011.7 - 0.0 - - - - - - -
16/11:30am 36.7 E 8 14 1012.3 - 0.0 - - - - - - -
16/11:00am 37.3 ENE 8 15 1012.9 - 0.0 - - - - - - -

Other Formats:

Comma delimited format used in spreadsheet applications
http://www.bom.gov.au/fwo/IDW60701/IDW60701.95214.axf

JavaScript Object Notation format (JSON) in row-major order
http://www.bom.gov.au/fwo/IDW60701/IDW60701.95214.json